VIPER02 EGXC-EGXC

Flight info

Callsign VIPER02
Flight time 0h 17m
Altitude 10000
Route VFR
Aircraft EUFI/M-V/N

Departure

Time 2026-04-21 17:25
Airport RAF Coningsby (EGXC)

Arrival

Time 2026-04-21 17:42
Airport RAF Coningsby (EGXC)
Time Latitude Longitude Altitude Speed Heading
2026-04-21 17:16 53.09104 -0.16094 31 ft 0 kts 232°
2026-04-21 17:20 53.09104 -0.16093 31 ft 2 kts 232°
2026-04-21 17:20 53.09112 -0.16070 31 ft 2 kts 269°
2026-04-21 17:21 53.09111 -0.16056 31 ft 0 kts 292°
2026-04-21 17:22 53.09122 -0.16126 31 ft 9 kts 251°
2026-04-21 17:22 53.09148 -0.16165 31 ft 6 kts 22°
2026-04-21 17:23 53.09212 -0.16109 31 ft 16 kts 37°
2026-04-21 17:23 53.09273 -0.15911 31 ft 23 kts 72°
2026-04-21 17:23 53.09328 -0.15624 32 ft 29 kts 72°
2026-04-21 17:23 53.09397 -0.15276 32 ft 34 kts 72°
2026-04-21 17:24 53.09446 -0.15025 32 ft 35 kts 73°
2026-04-21 17:24 53.09506 -0.14742 33 ft 20 kts 59°
2026-04-21 17:24 53.09611 -0.14645 33 ft 17 kts
2026-04-21 17:24 53.09680 -0.14763 33 ft 20 kts 253°
2026-04-21 17:25 53.09518 -0.15609 32 ft 187 kts 252°
2026-04-21 17:25 53.08892 -0.18921 904 ft 414 kts 252°
2026-04-21 17:25 53.07844 -0.24397 3351 ft 523 kts 252°
2026-04-21 17:25 53.06741 -0.30044 5534 ft 500 kts 252°
2026-04-21 17:26 53.06661 -0.35707 6301 ft 489 kts 290°
2026-04-21 17:26 53.08682 -0.40015 7267 ft 469 kts 335°
2026-04-21 17:26 53.11502 -0.39555 7994 ft 422 kts 57°
2026-04-21 17:26 53.11484 -0.34856 7520 ft 442 kts 105°
2026-04-21 17:27 53.11566 -0.30068 8770 ft 418 kts 73°
2026-04-21 17:27 53.12462 -0.25393 9636 ft 435 kts 73°
2026-04-21 17:27 53.13449 -0.20430 9775 ft 457 kts 72°
2026-04-21 17:27 53.14475 -0.15384 9929 ft 474 kts 72°
2026-04-21 17:28 53.15569 -0.10105 10097 ft 487 kts 71°
2026-04-21 17:28 53.17193 -0.05098 9988 ft 502 kts 56°
2026-04-21 17:28 53.19284 -0.00253 9616 ft 525 kts 54°
2026-04-21 17:28 53.21983 0.04422 9026 ft 574 kts 45°
2026-04-21 17:29 53.24365 0.09579 8515 ft 559 kts 78°
2026-04-21 17:29 53.22983 0.15046 6896 ft 570 kts 161°
2026-04-21 17:29 53.19748 0.12342 6692 ft 564 kts 233°
2026-04-21 17:29 53.17447 0.07113 6310 ft 549 kts 227°
2026-04-21 17:30 53.14973 0.02971 4433 ft 422 kts 222°
2026-04-21 17:30 53.13415 0.00049 3736 ft 279 kts 226°
2026-04-21 17:30 53.12315 -0.02319 2950 ft 256 kts 237°
2026-04-21 17:30 53.11539 -0.04974 2348 ft 247 kts 251°
2026-04-21 17:31 53.11050 -0.07538 1943 ft 216 kts 252°
2026-04-21 17:31 53.10626 -0.09807 1265 ft 202 kts 252°
2026-04-21 17:31 53.10213 -0.12048 654 ft 196 kts 252°
2026-04-21 17:31 53.09801 -0.14126 182 ft 180 kts 251°
2026-04-21 17:32 53.09440 -0.15962 34 ft 165 kts 253°
2026-04-21 17:32 53.09015 -0.18343 2148 ft 235 kts 253°
2026-04-21 17:32 53.08346 -0.21928 5038 ft 459 kts 252°
2026-04-21 17:32 53.07299 -0.27568 5985 ft 521 kts 252°
2026-04-21 17:33 53.06179 -0.33537 6741 ft 571 kts 252°
2026-04-21 17:33 53.04976 -0.39793 7517 ft 564 kts 251°
2026-04-21 17:33 53.03770 -0.45952 8295 ft 556 kts 251°
2026-04-21 17:33 53.03569 -0.51955 8984 ft 514 kts 315°
2026-04-21 17:34 53.05848 -0.50843 8848 ft 406 kts 69°
2026-04-21 17:34 53.06851 -0.46352 9366 ft 430 kts 70°
2026-04-21 17:34 53.07953 -0.41458 8765 ft 470 kts 70°
2026-04-21 17:34 53.09145 -0.36205 8328 ft 496 kts 70°
2026-04-21 17:35 53.10391 -0.30751 8308 ft 510 kts 70°
2026-04-21 17:35 53.11668 -0.25180 8288 ft 520 kts 70°
2026-04-21 17:35 53.12973 -0.19516 8273 ft 527 kts 69°
2026-04-21 17:35 53.14285 -0.13876 8263 ft 532 kts 69°
2026-04-21 17:36 53.15644 -0.08100 8255 ft 535 kts 69°
2026-04-21 17:36 53.17017 -0.02320 8241 ft 538 kts 69°
2026-04-21 17:36 53.18408 0.03479 8231 ft 540 kts 69°
2026-04-21 17:36 53.19818 0.09297 8228 ft 541 kts 68°
2026-04-21 17:37 53.21243 0.15109 8228 ft 542 kts 68°
2026-04-21 17:37 53.22681 0.20925 8232 ft 543 kts 68°
2026-04-21 17:37 53.24135 0.26746 8241 ft 543 kts 68°
2026-04-21 17:37 53.25230 0.32696 7914 ft 537 kts 101°
2026-04-21 17:38 53.22531 0.34243 7720 ft 452 kts 232°
2026-04-21 17:38 53.21985 0.28728 4070 ft 528 kts 264°
2026-04-21 17:38 53.21457 0.21705 3584 ft 710 kts 258°
2026-04-21 17:38 53.19898 0.14060 3373 ft 614 kts 248°
2026-04-21 17:39 53.18072 0.08651 3370 ft 463 kts 211°
2026-04-21 17:39 53.15368 0.06966 3558 ft 384 kts 193°
2026-04-21 17:39 53.12991 0.05799 3560 ft 300 kts 191°
2026-04-21 17:39 53.11499 0.05037 3222 ft 205 kts 198°
2026-04-21 17:40 53.10299 0.03417 2870 ft 216 kts 239°
2026-04-21 17:40 53.09996 0.00869 2592 ft 244 kts 268°
2026-04-21 17:40 53.09798 -0.01851 2651 ft 239 kts 231°
2026-04-21 17:40 53.08945 -0.04271 1591 ft 227 kts 278°
2026-04-21 17:41 53.09298 -0.06622 1130 ft 199 kts 290°
2026-04-21 17:41 53.09752 -0.08899 1307 ft 247 kts 294°
2026-04-21 17:41 53.10156 -0.11481 1223 ft 219 kts 272°
2026-04-21 17:41 53.09864 -0.13865 342 ft 197 kts 252°
2026-04-21 17:42 53.09476 -0.15777 34 ft 162 kts 252°
2026-04-21 17:42 53.09241 -0.17007 27 ft 67 kts 252°
2026-04-21 17:42 53.09140 -0.17518 30 ft 30 kts 250°
2026-04-21 17:42 53.09153 -0.17829 29 ft 27 kts 294°
2026-04-21 17:43 53.09181 -0.17982 28 ft 5 kts 179°
2026-04-21 17:43 53.09167 -0.17959 28 ft 0 kts 72°
2026-04-21 18:45 53.09166 -0.17942 28 ft 9 kts 106°
2026-04-21 18:45 53.09135 -0.17818 29 ft 0 kts 117°
2026-04-21 18:46 53.09139 -0.17816 29 ft 1 kts 356°
2026-04-21 18:46 53.09168 -0.17892 29 ft 8 kts 294°
2026-04-21 18:47 53.09166 -0.17921 29 ft 1 kts 122°
2026-04-21 18:47 53.09163 -0.17920 29 ft 1 kts 178°
2026-04-21 18:47 53.09196 -0.18011 28 ft 21 kts 302°
2026-04-21 18:47 53.09258 -0.18225 28 ft 20 kts 294°
2026-04-21 18:48 53.09249 -0.18373 28 ft 13 kts 208°
2026-04-21 18:48 53.09094 -0.18488 27 ft 29 kts 205°
2026-04-21 18:48 53.09032 -0.18536 28 ft 0 kts 203°
2026-04-21 18:51 53.09017 -0.18546 28 ft 18 kts 199°
2026-04-21 18:51 53.08973 -0.18338 29 ft 44 kts 72°
2026-04-21 18:51 53.09350 -0.16456 413 ft 262 kts 72°
2026-04-21 18:52 53.09944 -0.13072 5378 ft 402 kts 74°
2026-04-21 18:52 53.10918 -0.07280 8629 ft 619 kts 75°
2026-04-21 18:52 53.12182 0.00241 12168 ft 714 kts 75°
2026-04-21 18:52 53.13722 0.08290 14713 ft 774 kts 49°
2026-04-21 18:53 53.18809 0.07394 12397 ft 907 kts 306°
2026-04-21 18:53 53.19588 -0.02940 13712 ft 897 kts 268°
2026-04-21 18:53 53.17492 -0.13565 7570 ft 1027 kts 247°
2026-04-21 18:53 53.15007 -0.23626 7031 ft 709 kts 247°
2026-04-21 18:54 53.13726 -0.28838 6469 ft 362 kts 246°
2026-04-21 18:54 53.12801 -0.32594 5994 ft 332 kts 246°
2026-04-21 18:54 53.12014 -0.35549 5236 ft 263 kts 242°
2026-04-21 18:54 53.10619 -0.36631 4327 ft 250 kts 148°
2026-04-21 18:55 53.09827 -0.35364 4587 ft 271 kts 108°
2026-04-21 18:55 53.10466 -0.31762 3969 ft 258 kts 53°
2026-04-21 18:55 53.11376 -0.29211 2713 ft 253 kts 67°
2026-04-21 18:55 53.11593 -0.26705 2562 ft 252 kts 110°
2026-04-21 18:56 53.10410 -0.22776 2167 ft 498 kts 114°
2026-04-21 18:56 53.08595 -0.16628 2338 ft 667 kts 115°
2026-04-21 18:56 53.07186 -0.11820 2477 ft 720 kts 115°
2026-04-21 18:56 53.04904 -0.04003 2719 ft 773 kts 115°
2026-04-21 18:57 53.02515 0.04228 2853 ft 806 kts 114°
2026-04-21 18:57 53.00073 0.12762 2751 ft 827 kts 114°
2026-04-21 18:57 52.97585 0.21546 813 ft 850 kts 112°
2026-04-21 18:57 52.97193 0.30522 3017 ft 793 kts 51°
2026-04-21 18:58 53.01912 0.29321 5739 ft 842 kts 307°
2026-04-21 18:58 53.05343 0.21072 4692 ft 894 kts 306°
2026-04-21 18:58 53.08785 0.12252 3186 ft 918 kts 292°
2026-04-21 18:58 53.07249 0.03018 5083 ft 871 kts 207°
2026-04-21 18:59 53.01368 0.02314 8444 ft 879 kts 178°
2026-04-21 18:59 52.95280 0.00085 8062 ft 937 kts 204°
2026-04-21 18:59 52.89282 -0.04664 8059 ft 966 kts 205°
2026-04-21 18:59 52.83200 -0.09645 8116 ft 981 kts 205°
2026-04-21 19:00 52.77204 -0.14839 8245 ft 993 kts 213°
2026-04-21 19:00 52.71786 -0.22031 8232 ft 1001 kts 219°
2026-04-21 19:00 52.66452 -0.29457 8081 ft 1005 kts 220°
2026-04-21 19:00 52.61657 -0.37867 7061 ft 1012 kts 232°
2026-04-21 19:01 52.58640 -0.48299 6515 ft 1007 kts 248°
2026-04-21 19:01 52.56145 -0.59008 5635 ft 1000 kts 249°
2026-04-21 19:01 52.53715 -0.69635 4959 ft 988 kts 249°
2026-04-21 19:01 52.51332 -0.80151 4712 ft 973 kts 249°
2026-04-21 19:02 52.48980 -0.90474 4689 ft 962 kts 249°
2026-04-21 19:02 52.46630 -1.00723 4619 ft 955 kts 249°
2026-04-21 19:02 52.44325 -1.10782 4587 ft 952 kts 249°
2026-04-21 19:02 52.41996 -1.20927 4658 ft 950 kts 249°
2026-04-21 19:03 52.40702 -1.31298 5536 ft 931 kts 287°
2026-04-21 19:03 52.45596 -1.35723 5385 ft 895 kts 32°
2026-04-21 19:03 52.48883 -1.27244 3289 ft 900 kts 69°
2026-04-21 19:03 52.53426 -1.21974 3914 ft 888 kts 347°
2026-04-21 19:04 52.56193 -1.30179 5774 ft 904 kts 258°
2026-04-21 19:04 52.52221 -1.37895 6264 ft 919 kts 218°
2026-04-21 19:04 52.47189 -1.44681 5343 ft 946 kts 218°
2026-04-21 19:04 52.42063 -1.51503 4318 ft 954 kts 218°
2026-04-21 19:05 52.36988 -1.58476 4339 ft 943 kts 222°
2026-04-21 19:05 52.32421 -1.65970 4324 ft 939 kts 224°
2026-04-21 19:05 52.29076 -1.72742 4165 ft 493 kts 233°
2026-04-21 19:05 52.27631 -1.77133 4133 ft 453 kts 252°
2026-04-21 19:06 52.27478 -1.82359 4417 ft 476 kts 273°
2026-04-21 19:06 52.27659 -1.87882 4429 ft 498 kts 274°
2026-04-21 19:06 52.27882 -1.93632 4465 ft 514 kts 274°
2026-04-21 19:06 52.28147 -1.99518 4492 ft 524 kts 275°
2026-04-21 19:07 52.28453 -2.05502 4520 ft 531 kts 275°
2026-04-21 19:07 52.28800 -2.11546 4574 ft 536 kts 276°
2026-04-21 19:07 52.29183 -2.17623 4612 ft 540 kts 276°
2026-04-21 19:07 52.29476 -2.23670 4608 ft 542 kts 270°
2026-04-21 19:08 52.29192 -2.29840 4329 ft 548 kts 260°
2026-04-21 19:08 52.28201 -2.35774 4696 ft 536 kts 247°
2026-04-21 19:08 52.26721 -2.41152 7997 ft 395 kts 244°
2026-04-21 19:08 52.25453 -2.45650 11561 ft 453 kts 243°
2026-04-21 19:09 52.24028 -2.50084 10756 ft 427 kts 239°
2026-04-21 19:09 52.22876 -2.54649 10085 ft 452 kts 251°
2026-04-21 19:09 52.21899 -2.59552 9959 ft 452 kts 251°
2026-04-21 19:09 52.20960 -2.64385 9821 ft 442 kts 251°
2026-04-21 19:10 52.20072 -2.69144 9674 ft 435 kts 252°
2026-04-21 19:10 52.19233 -2.73844 9529 ft 430 kts 253°
2026-04-21 19:10 52.18436 -2.78519 9417 ft 422 kts 253°
2026-04-21 19:10 52.17665 -2.83107 9374 ft 418 kts 253°
2026-04-21 19:11 52.16865 -2.87651 9289 ft 415 kts 252°
2026-04-21 19:11 52.16076 -2.92149 9299 ft 411 kts 253°
2026-04-21 19:11 52.15317 -2.96600 9483 ft 423 kts 253°
2026-04-21 19:11 52.14507 -3.01419 9518 ft 459 kts 253°
2026-04-21 19:12 52.13646 -3.06591 9536 ft 485 kts 253°
2026-04-21 19:12 52.12776 -3.11856 9526 ft 459 kts 253°
2026-04-21 19:12 52.12000 -3.16641 9480 ft 416 kts 254°
2026-04-21 19:12 52.11306 -3.21012 9408 ft 383 kts 253°
2026-04-21 19:13 52.10673 -3.25070 9314 ft 356 kts 253°
2026-04-21 19:13 52.10090 -3.28863 9342 ft 343 kts 254°
2026-04-21 19:13 52.09490 -3.32789 9386 ft 381 kts 254°
2026-04-21 19:13 52.08812 -3.37160 9504 ft 414 kts 254°
2026-04-21 19:14 52.08099 -3.41867 9493 ft 437 kts 255°
2026-04-21 19:14 52.07262 -3.46731 9672 ft 460 kts 251°
2026-04-21 19:14 52.06255 -3.51822 9847 ft 481 kts 249°
2026-04-21 19:14 52.05203 -3.56830 11592 ft 448 kts 250°
2026-04-21 19:15 52.04195 -3.61694 11700 ft 468 kts 250°
2026-04-21 19:15 52.03139 -3.66763 11746 ft 479 kts 250°
2026-04-21 19:15 52.02079 -3.71968 11427 ft 498 kts 250°
2026-04-21 19:15 52.00989 -3.77398 10464 ft 500 kts 253°
2026-04-21 19:16 52.00142 -3.82720 10068 ft 487 kts 254°
2026-04-21 19:16 51.99280 -3.88165 9678 ft 499 kts 253°
2026-04-21 19:16 51.97771 -3.92719 7160 ft 457 kts 226°
2026-04-21 19:16 51.96605 -3.96786 6641 ft 383 kts 291°
2026-04-21 19:17 51.98437 -4.04249 6399 ft 333 kts 293°
2026-04-21 19:17 51.99394 -4.07559 6237 ft 315 kts 297°
2026-04-21 19:17 52.00437 -4.10595 6042 ft 301 kts 302°
2026-04-21 19:18 52.01537 -4.13405 5815 ft 289 kts 301°
2026-04-21 19:18 52.02524 -4.16192 5547 ft 282 kts 301°
2026-04-21 19:18 52.03467 -4.18937 5233 ft 274 kts 291°
2026-04-21 19:18 52.03806 -4.21830 5026 ft 255 kts 259°
2026-04-21 19:19 52.03180 -4.24393 4810 ft 260 kts 226°
2026-04-21 19:19 52.01956 -4.26681 4714 ft 263 kts 223°
2026-04-21 19:19 52.00772 -4.28838 4654 ft 249 kts 222°
2026-04-21 19:19 51.99624 -4.30911 4677 ft 259 kts 222°
2026-04-21 19:20 51.98317 -4.33352 4775 ft 306 kts 225°
2026-04-21 19:20 51.97018 -4.35872 4809 ft 284 kts 225°
2026-04-21 19:20 51.95736 -4.38396 4909 ft 313 kts 226°
2026-04-21 19:20 51.94484 -4.41718 4911 ft 381 kts 242°
2026-04-21 19:21 51.93358 -4.45757 4942 ft 395 kts 243°
2026-04-21 19:21 51.92251 -4.49810 4954 ft 393 kts 243°
2026-04-21 19:21 51.91177 -4.53866 4956 ft 391 kts 244°
2026-04-21 19:21 51.90155 -4.57951 4957 ft 392 kts 245°
2026-04-21 19:22 51.89178 -4.62060 4962 ft 391 kts 246°
2026-04-21 19:22 51.88222 -4.66186 4960 ft 391 kts 249°
2026-04-21 19:22 51.88094 -4.70572 4692 ft 398 kts 282°
2026-04-21 19:22 51.88874 -4.74817 4863 ft 388 kts 294°
2026-04-21 19:23 51.90496 -4.78148 5063 ft 377 kts 319°
2026-04-21 19:23 51.92424 -4.81080 5298 ft 392 kts 320°
2026-04-21 19:23 51.94419 -4.84059 5359 ft 378 kts 320°
2026-04-21 19:23 51.96283 -4.86823 5392 ft 349 kts 320°
2026-04-21 19:24 51.98027 -4.89387 5323 ft 329 kts 320°
2026-04-21 19:24 51.99688 -4.91791 5287 ft 311 kts 321°
2026-04-21 19:24 52.01332 -4.94187 4371 ft 327 kts 314°
2026-04-21 19:24 52.02380 -4.97437 3842 ft 324 kts 281°
2026-04-21 19:25 52.02314 -5.01051 3730 ft 320 kts 250°
2026-04-21 19:25 52.01325 -5.04229 3731 ft 315 kts 238°
2026-04-21 19:25 52.00607 -5.07608 3718 ft 319 kts 248°
2026-04-21 19:25 51.99468 -5.10573 3689 ft 309 kts 217°
2026-04-21 19:26 51.97657 -5.12135 3673 ft 290 kts 185°
2026-04-21 19:26 51.95714 -5.11913 3654 ft 272 kts 153°
2026-04-21 19:26 51.94292 -5.10061 3642 ft 263 kts 120°
2026-04-21 19:26 51.93835 -5.07250 3655 ft 264 kts 89°
2026-04-21 19:27 51.94188 -5.04363 3694 ft 267 kts 75°
2026-04-21 19:27 51.95061 -5.01329 3723 ft 386 kts 65°
2026-04-21 19:27 51.96689 -4.97169 3567 ft 465 kts 56°
2026-04-21 19:27 51.98715 -4.92905 3588 ft 472 kts 54°
2026-04-21 19:28 52.00610 -4.89053 3387 ft 399 kts 56°
2026-04-21 19:28 52.02176 -4.85756 3477 ft 340 kts 56°
2026-04-21 19:28 52.03601 -4.82906 3110 ft 309 kts 54°
2026-04-21 19:28 52.04690 -4.80665 3020 ft 231 kts 57°
2026-04-21 19:29 52.05670 -4.78736 2807 ft 219 kts 53°
2026-04-21 19:29 52.06418 -4.76812 2615 ft 185 kts 71°
2026-04-21 19:29 52.06904 -4.75062 2596 ft 168 kts 70°
2026-04-21 19:29 52.07587 -4.72494 2524 ft 297 kts 67°
2026-04-21 19:30 52.08512 -4.69439 2448 ft 292 kts 65°
2026-04-21 19:30 52.09407 -4.66630 2536 ft 269 kts 68°
2026-04-21 19:30 52.10144 -4.63929 2236 ft 252 kts 70°
2026-04-21 19:30 52.10679 -4.61327 1714 ft 238 kts 82°
2026-04-21 19:31 52.10926 -4.58967 1020 ft 151 kts 76°
2026-04-21 19:31 52.11253 -4.57095 854 ft 246 kts 75°
2026-04-21 19:31 52.11930 -4.53091 1698 ft 478 kts 75°
2026-04-21 19:31 52.13276 -4.48126 2396 ft 464 kts 40°
2026-04-21 19:32 52.15814 -4.48682 2811 ft 392 kts 292°
2026-04-21 19:32 52.15759 -4.52640 3033 ft 335 kts 261°
2026-04-21 19:32 52.15450 -4.56240 2971 ft 305 kts 260°
2026-04-21 19:32 52.15152 -4.59438 2898 ft 242 kts 259°
2026-04-21 19:33 52.14999 -4.61105 2751 ft 218 kts 259°
2026-04-21 19:33 52.14730 -4.64115 2588 ft 200 kts 259°
2026-04-21 19:33 52.14502 -4.66579 2631 ft 249 kts 260°
2026-04-21 19:33 52.14215 -4.69673 2823 ft 302 kts 260°
2026-04-21 19:34 52.13783 -4.73155 3006 ft 312 kts 246°
2026-04-21 19:34 52.12681 -4.76007 3158 ft 282 kts 220°
2026-04-21 19:34 52.11162 -4.77725 3178 ft 253 kts 194°
2026-04-21 19:34 52.09551 -4.78281 3232 ft 221 kts 180°
2026-04-21 19:35 52.08230 -4.77967 2964 ft 178 kts 143°
2026-04-21 19:35 52.08112 -4.74597 2393 ft 185 kts 72°
2026-04-21 19:35 52.08544 -4.72805 2195 ft 152 kts 73°
2026-04-21 19:36 52.08834 -4.71202 1887 ft 137 kts 80°
2026-04-21 19:36 52.09017 -4.69665 1573 ft 160 kts 79°
2026-04-21 19:36 52.09331 -4.67936 1586 ft 149 kts 74°
2026-04-21 19:36 52.09718 -4.66148 1543 ft 180 kts 71°
2026-04-21 19:37 52.10108 -4.64382 1337 ft 183 kts 76°
2026-04-21 19:37 52.10390 -4.62357 1363 ft 171 kts 80°
2026-04-21 19:37 52.10588 -4.60620 983 ft 157 kts 77°
2026-04-21 19:37 52.10918 -4.58844 824 ft 172 kts 73°
2026-04-21 19:38 52.11234 -4.57141 790 ft 161 kts 76°